sensor_id;sensor_type;location;lat;lon;timestamp;P1;durP1;ratioP1;P2;durP2;ratioP2
43184;SDS011;28803;52.308;19.096;2022-10-31T00:01:16;33.92;;;19.00;;
43184;SDS011;28803;52.308;19.096;2022-10-31T00:03:52;45.55;;;22.23;;
43184;SDS011;28803;52.308;19.096;2022-10-31T00:06:19;38.80;;;21.55;;
43184;SDS011;28803;52.308;19.096;2022-10-31T00:08:51;37.10;;;18.88;;
43184;SDS011;28803;52.308;19.096;2022-10-31T00:11:23;45.13;;;21.27;;
43184;SDS011;28803;52.308;19.096;2022-10-31T00:13:51;35.65;;;18.75;;
43184;SDS011;28803;52.308;19.096;2022-10-31T00:16:19;37.70;;;20.02;;
43184;SDS011;28803;52.308;19.096;2022-10-31T00:18:51;34.53;;;18.58;;
43184;SDS011;28803;52.308;19.096;2022-10-31T00:21:19;42.78;;;20.73;;
43184;SDS011;28803;52.308;19.096;2022-10-31T00:23:46;32.15;;;17.70;;
43184;SDS011;28803;52.308;19.096;2022-10-31T00:26:13;37.67;;;19.05;;
43184;SDS011;28803;52.308;19.096;2022-10-31T00:28:41;26.92;;;15.88;;
43184;SDS011;28803;52.308;19.096;2022-10-31T00:31:09;27.83;;;17.38;;
43184;SDS011;28803;52.308;19.096;2022-10-31T00:33:38;30.77;;;16.25;;
43184;SDS011;28803;52.308;19.096;2022-10-31T00:36:06;29.70;;;17.23;;
43184;SDS011;28803;52.308;19.096;2022-10-31T00:38:36;24.58;;;15.15;;
43184;SDS011;28803;52.308;19.096;2022-10-31T00:41:03;32.10;;;17.13;;
43184;SDS011;28803;52.308;19.096;2022-10-31T00:43:30;27.52;;;17.20;;
43184;SDS011;28803;52.308;19.096;2022-10-31T00:45:57;28.48;;;16.98;;
43184;SDS011;28803;52.308;19.096;2022-10-31T00:48:24;29.88;;;16.55;;
43184;SDS011;28803;52.308;19.096;2022-10-31T00:50:51;25.65;;;16.13;;
43184;SDS011;28803;52.308;19.096;2022-10-31T00:53:19;27.33;;;15.57;;
43184;SDS011;28803;52.308;19.096;2022-10-31T00:55:46;32.08;;;17.88;;
43184;SDS011;28803;52.308;19.096;2022-10-31T00:58:13;27.10;;;15.43;;
43184;SDS011;28803;52.308;19.096;2022-10-31T01:00:46;27.77;;;15.93;;
43184;SDS011;28803;52.308;19.096;2022-10-31T01:03:25;25.27;;;14.23;;
43184;SDS011;28803;52.308;19.096;2022-10-31T01:06:08;26.77;;;15.15;;
43184;SDS011;28803;52.308;19.096;2022-10-31T01:08:36;23.70;;;15.17;;
43184;SDS011;28803;52.308;19.096;2022-10-31T01:11:06;27.58;;;14.93;;
43184;SDS011;28803;52.308;19.096;2022-10-31T01:13:42;23.50;;;14.63;;
43184;SDS011;28803;52.308;19.096;2022-10-31T01:16:11;24.30;;;14.55;;
43184;SDS011;28803;52.308;19.096;2022-10-31T01:18:42;26.33;;;17.15;;
43184;SDS011;28803;52.308;19.096;2022-10-31T01:21:13;25.60;;;15.45;;
43184;SDS011;28803;52.308;19.096;2022-10-31T01:23:48;30.00;;;17.00;;
43184;SDS011;28803;52.308;19.096;2022-10-31T01:26:20;27.08;;;16.98;;
43184;SDS011;28803;52.308;19.096;2022-10-31T01:31:23;21.33;;;13.85;;
43184;SDS011;28803;52.308;19.096;2022-10-31T01:33:53;23.75;;;13.82;;
43184;SDS011;28803;52.308;19.096;2022-10-31T01:39:03;21.95;;;13.50;;
43184;SDS011;28803;52.308;19.096;2022-10-31T01:41:33;21.77;;;13.75;;
43184;SDS011;28803;52.308;19.096;2022-10-31T01:44:46;26.10;;;15.07;;
43184;SDS011;28803;52.308;19.096;2022-10-31T01:47:00;27.85;;;15.68;;
43184;SDS011;28803;52.308;19.096;2022-10-31T01:49:42;25.45;;;14.85;;
43184;SDS011;28803;52.308;19.096;2022-10-31T01:52:23;25.90;;;14.80;;
43184;SDS011;28803;52.308;19.096;2022-10-31T01:57:26;25.02;;;15.82;;
43184;SDS011;28803;52.308;19.096;2022-10-31T01:59:55;27.15;;;15.93;;
43184;SDS011;28803;52.308;19.096;2022-10-31T02:02:27;24.13;;;14.98;;
43184;SDS011;28803;52.308;19.096;2022-10-31T02:04:56;29.77;;;16.13;;
43184;SDS011;28803;52.308;19.096;2022-10-31T02:07:28;32.13;;;17.02;;
43184;SDS011;28803;52.308;19.096;2022-10-31T02:10:02;24.60;;;13.88;;
43184;SDS011;28803;52.308;19.096;2022-10-31T02:12:30;22.58;;;14.25;;
43184;SDS011;28803;52.308;19.096;2022-10-31T02:14:59;26.20;;;15.00;;
43184;SDS011;28803;52.308;19.096;2022-10-31T02:17:26;23.30;;;15.55;;
43184;SDS011;28803;52.308;19.096;2022-10-31T02:20:15;29.38;;;15.20;;
43184;SDS011;28803;52.308;19.096;2022-10-31T02:34:18;26.70;;;15.98;;
43184;SDS011;28803;52.308;19.096;2022-10-31T02:36:54;22.48;;;14.90;;
43184;SDS011;28803;52.308;19.096;2022-10-31T02:39:56;24.42;;;15.43;;
43184;SDS011;28803;52.308;19.096;2022-10-31T02:45:32;27.00;;;16.00;;
43184;SDS011;28803;52.308;19.096;2022-10-31T02:48:09;25.65;;;15.23;;
43184;SDS011;28803;52.308;19.096;2022-10-31T02:50:41;23.67;;;16.02;;
43184;SDS011;28803;52.308;19.096;2022-10-31T02:53:15;26.10;;;16.52;;
43184;SDS011;28803;52.308;19.096;2022-10-31T02:55:44;26.63;;;16.30;;
43184;SDS011;28803;52.308;19.096;2022-10-31T02:58:17;29.15;;;16.98;;
43184;SDS011;28803;52.308;19.096;2022-10-31T03:03:51;23.77;;;15.55;;
43184;SDS011;28803;52.308;19.096;2022-10-31T03:06:45;27.08;;;15.98;;
43184;SDS011;28803;52.308;19.096;2022-10-31T03:09:22;25.38;;;15.45;;
43184;SDS011;28803;52.308;19.096;2022-10-31T03:12:14;26.40;;;15.07;;
43184;SDS011;28803;52.308;19.096;2022-10-31T03:15:09;23.45;;;15.27;;
43184;SDS011;28803;52.308;19.096;2022-10-31T03:20:24;26.83;;;14.80;;
43184;SDS011;28803;52.308;19.096;2022-10-31T03:22:56;24.08;;;14.68;;
43184;SDS011;28803;52.308;19.096;2022-10-31T03:25:25;21.88;;;13.70;;
43184;SDS011;28803;52.308;19.096;2022-10-31T03:27:53;25.52;;;15.75;;
43184;SDS011;28803;52.308;19.096;2022-10-31T03:30:21;23.17;;;14.65;;
43184;SDS011;28803;52.308;19.096;2022-10-31T03:32:49;20.58;;;13.07;;
43184;SDS011;28803;52.308;19.096;2022-10-31T03:35:19;19.77;;;13.40;;
43184;SDS011;28803;52.308;19.096;2022-10-31T03:37:49;24.85;;;14.27;;
43184;SDS011;28803;52.308;19.096;2022-10-31T03:40:18;19.58;;;13.80;;
43184;SDS011;28803;52.308;19.096;2022-10-31T03:42:51;20.02;;;13.07;;
43184;SDS011;28803;52.308;19.096;2022-10-31T03:45:24;24.08;;;14.05;;
43184;SDS011;28803;52.308;19.096;2022-10-31T03:47:55;23.27;;;14.57;;
43184;SDS011;28803;52.308;19.096;2022-10-31T03:50:25;24.15;;;14.75;;
43184;SDS011;28803;52.308;19.096;2022-10-31T03:52:57;20.80;;;14.45;;
43184;SDS011;28803;52.308;19.096;2022-10-31T03:58:06;26.88;;;13.88;;
43184;SDS011;28803;52.308;19.096;2022-10-31T04:00:41;24.95;;;15.65;;
43184;SDS011;28803;52.308;19.096;2022-10-31T04:03:22;21.05;;;13.68;;
43184;SDS011;28803;52.308;19.096;2022-10-31T04:05:53;23.70;;;14.13;;
43184;SDS011;28803;52.308;19.096;2022-10-31T04:08:24;20.55;;;13.75;;
43184;SDS011;28803;52.308;19.096;2022-10-31T04:10:55;23.30;;;14.77;;
43184;SDS011;28803;52.308;19.096;2022-10-31T04:13:26;22.42;;;14.05;;
43184;SDS011;28803;52.308;19.096;2022-10-31T04:15:55;19.63;;;12.20;;
43184;SDS011;28803;52.308;19.096;2022-10-31T04:18:23;25.23;;;14.73;;
43184;SDS011;28803;52.308;19.096;2022-10-31T04:20:58;25.73;;;15.15;;
43184;SDS011;28803;52.308;19.096;2022-10-31T04:23:27;24.23;;;14.88;;
43184;SDS011;28803;52.308;19.096;2022-10-31T04:25:56;26.60;;;16.25;;
43184;SDS011;28803;52.308;19.096;2022-10-31T04:28:23;23.67;;;15.95;;
43184;SDS011;28803;52.308;19.096;2022-10-31T04:30:50;22.05;;;14.52;;
43184;SDS011;28803;52.308;19.096;2022-10-31T04:33:18;22.75;;;15.23;;
43184;SDS011;28803;52.308;19.096;2022-10-31T04:35:45;29.00;;;16.00;;
43184;SDS011;28803;52.308;19.096;2022-10-31T04:38:13;26.70;;;14.82;;
43184;SDS011;28803;52.308;19.096;2022-10-31T04:40:40;21.17;;;14.90;;
43184;SDS011;28803;52.308;19.096;2022-10-31T04:43:07;25.67;;;15.80;;
43184;SDS011;28803;52.308;19.096;2022-10-31T04:45:34;25.95;;;15.68;;
43184;SDS011;28803;52.308;19.096;2022-10-31T04:48:01;26.55;;;15.68;;
43184;SDS011;28803;52.308;19.096;2022-10-31T04:50:28;25.02;;;15.13;;
43184;SDS011;28803;52.308;19.096;2022-10-31T04:52:55;22.63;;;13.50;;
43184;SDS011;28803;52.308;19.096;2022-10-31T04:55:22;20.48;;;12.93;;
43184;SDS011;28803;52.308;19.096;2022-10-31T04:57:49;22.83;;;13.88;;
43184;SDS011;28803;52.308;19.096;2022-10-31T05:00:18;26.88;;;15.57;;
43184;SDS011;28803;52.308;19.096;2022-10-31T05:02:50;25.42;;;14.65;;
43184;SDS011;28803;52.308;19.096;2022-10-31T05:05:20;24.63;;;15.40;;
43184;SDS011;28803;52.308;19.096;2022-10-31T05:07:48;33.22;;;16.33;;
43184;SDS011;28803;52.308;19.096;2022-10-31T05:10:17;29.05;;;15.57;;
43184;SDS011;28803;52.308;19.096;2022-10-31T05:12:46;26.42;;;14.48;;
43184;SDS011;28803;52.308;19.096;2022-10-31T05:15:15;34.20;;;17.83;;
43184;SDS011;28803;52.308;19.096;2022-10-31T05:17:43;37.15;;;18.17;;
43184;SDS011;28803;52.308;19.096;2022-10-31T05:20:11;26.58;;;15.57;;
43184;SDS011;28803;52.308;19.096;2022-10-31T05:22:46;26.23;;;16.67;;
43184;SDS011;28803;52.308;19.096;2022-10-31T05:25:14;24.83;;;16.13;;
43184;SDS011;28803;52.308;19.096;2022-10-31T05:27:42;32.13;;;18.33;;
43184;SDS011;28803;52.308;19.096;2022-10-31T05:30:12;28.35;;;17.13;;
43184;SDS011;28803;52.308;19.096;2022-10-31T05:32:42;24.65;;;14.32;;
43184;SDS011;28803;52.308;19.096;2022-10-31T05:35:12;30.23;;;16.20;;
43184;SDS011;28803;52.308;19.096;2022-10-31T05:37:42;27.42;;;17.33;;
43184;SDS011;28803;52.308;19.096;2022-10-31T05:40:10;36.35;;;18.45;;
43184;SDS011;28803;52.308;19.096;2022-10-31T05:42:39;30.25;;;17.52;;
43184;SDS011;28803;52.308;19.096;2022-10-31T05:45:07;34.22;;;18.17;;
43184;SDS011;28803;52.308;19.096;2022-10-31T05:47:36;42.25;;;19.60;;
43184;SDS011;28803;52.308;19.096;2022-10-31T05:50:04;29.88;;;18.20;;
43184;SDS011;28803;52.308;19.096;2022-10-31T05:52:32;26.25;;;15.90;;
43184;SDS011;28803;52.308;19.096;2022-10-31T05:54:59;25.27;;;16.38;;
43184;SDS011;28803;52.308;19.096;2022-10-31T05:57:26;25.92;;;16.08;;
43184;SDS011;28803;52.308;19.096;2022-10-31T05:59:55;34.13;;;17.92;;
43184;SDS011;28803;52.308;19.096;2022-10-31T06:02:22;29.23;;;18.70;;
43184;SDS011;28803;52.308;19.096;2022-10-31T06:04:49;35.83;;;20.00;;
43184;SDS011;28803;52.308;19.096;2022-10-31T06:07:16;32.40;;;17.40;;
43184;SDS011;28803;52.308;19.096;2022-10-31T06:09:43;28.27;;;17.63;;
43184;SDS011;28803;52.308;19.096;2022-10-31T06:12:10;28.52;;;16.80;;
43184;SDS011;28803;52.308;19.096;2022-10-31T06:14:37;29.27;;;16.95;;
43184;SDS011;28803;52.308;19.096;2022-10-31T06:17:04;24.95;;;16.00;;
43184;SDS011;28803;52.308;19.096;2022-10-31T06:19:31;25.33;;;15.50;;
43184;SDS011;28803;52.308;19.096;2022-10-31T06:21:58;29.17;;;17.48;;
43184;SDS011;28803;52.308;19.096;2022-10-31T06:24:25;24.30;;;15.02;;
43184;SDS011;28803;52.308;19.096;2022-10-31T06:26:52;29.70;;;17.00;;
43184;SDS011;28803;52.308;19.096;2022-10-31T06:29:19;28.65;;;18.00;;
43184;SDS011;28803;52.308;19.096;2022-10-31T06:31:46;28.52;;;18.23;;
43184;SDS011;28803;52.308;19.096;2022-10-31T06:34:13;31.08;;;18.25;;
43184;SDS011;28803;52.308;19.096;2022-10-31T06:36:40;32.95;;;18.85;;
43184;SDS011;28803;52.308;19.096;2022-10-31T06:39:07;27.42;;;16.83;;
43184;SDS011;28803;52.308;19.096;2022-10-31T06:41:34;26.23;;;16.05;;
43184;SDS011;28803;52.308;19.096;2022-10-31T06:44:02;32.08;;;18.20;;
43184;SDS011;28803;52.308;19.096;2022-10-31T06:46:34;28.77;;;16.52;;
43184;SDS011;28803;52.308;19.096;2022-10-31T06:49:01;30.38;;;18.13;;
43184;SDS011;28803;52.308;19.096;2022-10-31T06:51:28;27.58;;;16.60;;
43184;SDS011;28803;52.308;19.096;2022-10-31T06:53:55;28.23;;;17.65;;
43184;SDS011;28803;52.308;19.096;2022-10-31T06:56:22;31.45;;;17.83;;
43184;SDS011;28803;52.308;19.096;2022-10-31T06:58:49;37.20;;;19.60;;
43184;SDS011;28803;52.308;19.096;2022-10-31T07:01:16;34.25;;;19.65;;
43184;SDS011;28803;52.308;19.096;2022-10-31T07:03:43;35.25;;;19.67;;
43184;SDS011;28803;52.308;19.096;2022-10-31T07:06:11;30.38;;;17.38;;
43184;SDS011;28803;52.308;19.096;2022-10-31T07:08:37;32.70;;;17.77;;
43184;SDS011;28803;52.308;19.096;2022-10-31T07:11:08;31.92;;;19.17;;
43184;SDS011;28803;52.308;19.096;2022-10-31T07:13:35;25.67;;;18.08;;
43184;SDS011;28803;52.308;19.096;2022-10-31T07:16:03;27.67;;;17.13;;
43184;SDS011;28803;52.308;19.096;2022-10-31T07:18:31;26.35;;;17.45;;
43184;SDS011;28803;52.308;19.096;2022-10-31T07:20:58;30.58;;;18.10;;
43184;SDS011;28803;52.308;19.096;2022-10-31T07:23:25;25.65;;;17.23;;
43184;SDS011;28803;52.308;19.096;2022-10-31T07:25:56;30.08;;;18.30;;
43184;SDS011;28803;52.308;19.096;2022-10-31T07:28:24;28.63;;;17.65;;
43184;SDS011;28803;52.308;19.096;2022-10-31T07:30:53;33.58;;;18.73;;
43184;SDS011;28803;52.308;19.096;2022-10-31T07:33:21;28.15;;;18.00;;
43184;SDS011;28803;52.308;19.096;2022-10-31T07:35:49;31.00;;;17.58;;
43184;SDS011;28803;52.308;19.096;2022-10-31T07:38:15;28.83;;;16.13;;
43184;SDS011;28803;52.308;19.096;2022-10-31T07:40:43;26.83;;;15.52;;
43184;SDS011;28803;52.308;19.096;2022-10-31T07:43:10;27.95;;;16.92;;
43184;SDS011;28803;52.308;19.096;2022-10-31T07:45:40;27.20;;;16.70;;
43184;SDS011;28803;52.308;19.096;2022-10-31T07:48:07;27.70;;;17.35;;
43184;SDS011;28803;52.308;19.096;2022-10-31T07:50:34;31.45;;;17.52;;
43184;SDS011;28803;52.308;19.096;2022-10-31T07:53:02;28.98;;;18.77;;
43184;SDS011;28803;52.308;19.096;2022-10-31T07:55:31;33.38;;;18.45;;
43184;SDS011;28803;52.308;19.096;2022-10-31T07:57:58;25.95;;;17.48;;
43184;SDS011;28803;52.308;19.096;2022-10-31T08:00:28;25.17;;;16.40;;
43184;SDS011;28803;52.308;19.096;2022-10-31T08:03:02;28.10;;;15.68;;
43184;SDS011;28803;52.308;19.096;2022-10-31T08:05:38;27.63;;;16.10;;
43184;SDS011;28803;52.308;19.096;2022-10-31T08:08:07;24.80;;;17.17;;
43184;SDS011;28803;52.308;19.096;2022-10-31T08:10:35;36.08;;;17.98;;
43184;SDS011;28803;52.308;19.096;2022-10-31T08:13:06;40.50;;;19.38;;
43184;SDS011;28803;52.308;19.096;2022-10-31T08:15:33;31.30;;;17.48;;
43184;SDS011;28803;52.308;19.096;2022-10-31T08:18:04;26.98;;;16.48;;
43184;SDS011;28803;52.308;19.096;2022-10-31T08:20:33;23.05;;;16.55;;
43184;SDS011;28803;52.308;19.096;2022-10-31T08:23:01;26.13;;;18.15;;
43184;SDS011;28803;52.308;19.096;2022-10-31T08:25:30;24.70;;;16.98;;
43184;SDS011;28803;52.308;19.096;2022-10-31T08:28:04;25.30;;;16.83;;
43184;SDS011;28803;52.308;19.096;2022-10-31T08:30:33;23.42;;;16.35;;
43184;SDS011;28803;52.308;19.096;2022-10-31T08:38:02;25.88;;;17.08;;
43184;SDS011;28803;52.308;19.096;2022-10-31T08:40:30;24.80;;;16.42;;
43184;SDS011;28803;52.308;19.096;2022-10-31T08:42:59;25.65;;;17.45;;
43184;SDS011;28803;52.308;19.096;2022-10-31T08:45:31;26.45;;;19.40;;
43184;SDS011;28803;52.308;19.096;2022-10-31T08:48:00;30.63;;;19.42;;
43184;SDS011;28803;52.308;19.096;2022-10-31T08:50:30;25.50;;;17.65;;
43184;SDS011;28803;52.308;19.096;2022-10-31T08:53:06;25.73;;;18.52;;
43184;SDS011;28803;52.308;19.096;2022-10-31T08:55:44;25.50;;;17.13;;
43184;SDS011;28803;52.308;19.096;2022-10-31T08:58:13;27.45;;;18.42;;
43184;SDS011;28803;52.308;19.096;2022-10-31T09:00:43;27.50;;;17.50;;
43184;SDS011;28803;52.308;19.096;2022-10-31T09:03:15;30.85;;;18.02;;
43184;SDS011;28803;52.308;19.096;2022-10-31T09:05:44;27.27;;;17.63;;
43184;SDS011;28803;52.308;19.096;2022-10-31T09:08:12;26.80;;;17.65;;
43184;SDS011;28803;52.308;19.096;2022-10-31T09:10:43;23.58;;;17.40;;
43184;SDS011;28803;52.308;19.096;2022-10-31T09:13:15;27.10;;;18.33;;
43184;SDS011;28803;52.308;19.096;2022-10-31T09:15:45;24.23;;;17.55;;
43184;SDS011;28803;52.308;19.096;2022-10-31T09:18:15;31.33;;;18.52;;
43184;SDS011;28803;52.308;19.096;2022-10-31T09:20:44;24.80;;;17.48;;
43184;SDS011;28803;52.308;19.096;2022-10-31T09:23:13;25.58;;;17.50;;
43184;SDS011;28803;52.308;19.096;2022-10-31T09:25:45;25.85;;;19.13;;
43184;SDS011;28803;52.308;19.096;2022-10-31T09:28:17;24.77;;;17.25;;
43184;SDS011;28803;52.308;19.096;2022-10-31T09:30:46;26.80;;;17.13;;
43184;SDS011;28803;52.308;19.096;2022-10-31T09:33:15;23.40;;;16.98;;
43184;SDS011;28803;52.308;19.096;2022-10-31T09:35:42;29.27;;;17.65;;
43184;SDS011;28803;52.308;19.096;2022-10-31T09:38:13;23.70;;;16.77;;
43184;SDS011;28803;52.308;19.096;2022-10-31T09:43:34;25.60;;;17.08;;
43184;SDS011;28803;52.308;19.096;2022-10-31T09:46:12;20.90;;;15.80;;
43184;SDS011;28803;52.308;19.096;2022-10-31T09:49:12;20.13;;;15.20;;
43184;SDS011;28803;52.308;19.096;2022-10-31T09:51:44;23.52;;;16.13;;
43184;SDS011;28803;52.308;19.096;2022-10-31T09:55:00;23.67;;;15.93;;
43184;SDS011;28803;52.308;19.096;2022-10-31T09:57:35;26.75;;;16.13;;
43184;SDS011;28803;52.308;19.096;2022-10-31T10:00:05;21.90;;;15.85;;
43184;SDS011;28803;52.308;19.096;2022-10-31T10:02:39;22.17;;;16.55;;
43184;SDS011;28803;52.308;19.096;2022-10-31T10:05:18;22.10;;;16.13;;
43184;SDS011;28803;52.308;19.096;2022-10-31T10:08:10;22.42;;;15.55;;
43184;SDS011;28803;52.308;19.096;2022-10-31T10:16:19;22.40;;;15.85;;
43184;SDS011;28803;52.308;19.096;2022-10-31T10:22:26;24.50;;;16.30;;
43184;SDS011;28803;52.308;19.096;2022-10-31T10:30:37;23.10;;;15.10;;
43184;SDS011;28803;52.308;19.096;2022-10-31T10:36:00;23.38;;;16.67;;
43184;SDS011;28803;52.308;19.096;2022-10-31T10:38:36;22.35;;;15.90;;
43184;SDS011;28803;52.308;19.096;2022-10-31T10:41:16;23.52;;;16.02;;
43184;SDS011;28803;52.308;19.096;2022-10-31T10:43:48;25.20;;;17.42;;
43184;SDS011;28803;52.308;19.096;2022-10-31T10:46:17;22.00;;;15.38;;
43184;SDS011;28803;52.308;19.096;2022-10-31T10:52:53;27.02;;;18.65;;
43184;SDS011;28803;52.308;19.096;2022-10-31T10:57:56;29.85;;;18.73;;
43184;SDS011;28803;52.308;19.096;2022-10-31T11:00:40;29.58;;;18.20;;
43184;SDS011;28803;52.308;19.096;2022-10-31T11:03:09;30.58;;;18.80;;
43184;SDS011;28803;52.308;19.096;2022-10-31T11:05:47;29.73;;;18.60;;
43184;SDS011;28803;52.308;19.096;2022-10-31T11:08:32;26.60;;;17.55;;
43184;SDS011;28803;52.308;19.096;2022-10-31T11:11:46;30.60;;;18.88;;
43184;SDS011;28803;52.308;19.096;2022-10-31T11:13:55;32.58;;;19.25;;
43184;SDS011;28803;52.308;19.096;2022-10-31T11:16:31;29.10;;;18.83;;
43184;SDS011;28803;52.308;19.096;2022-10-31T11:21:41;33.33;;;20.17;;
43184;SDS011;28803;52.308;19.096;2022-10-31T11:26:50;25.67;;;17.48;;
43184;SDS011;28803;52.308;19.096;2022-10-31T11:29:22;32.58;;;18.90;;
43184;SDS011;28803;52.308;19.096;2022-10-31T11:31:52;28.08;;;18.20;;
43184;SDS011;28803;52.308;19.096;2022-10-31T11:34:29;27.48;;;18.63;;
43184;SDS011;28803;52.308;19.096;2022-10-31T11:37:24;29.33;;;18.10;;
43184;SDS011;28803;52.308;19.096;2022-10-31T11:39:59;28.90;;;18.67;;
43184;SDS011;28803;52.308;19.096;2022-10-31T11:42:40;28.48;;;19.98;;
43184;SDS011;28803;52.308;19.096;2022-10-31T11:45:51;32.20;;;19.90;;
43184;SDS011;28803;52.308;19.096;2022-10-31T11:48:00;27.10;;;17.63;;
43184;SDS011;28803;52.308;19.096;2022-10-31T11:50:39;25.90;;;17.40;;
43184;SDS011;28803;52.308;19.096;2022-10-31T11:53:12;25.42;;;16.98;;
43184;SDS011;28803;52.308;19.096;2022-10-31T11:55:44;29.70;;;18.13;;
43184;SDS011;28803;52.308;19.096;2022-10-31T11:58:19;36.55;;;19.23;;
43184;SDS011;28803;52.308;19.096;2022-10-31T12:00:52;31.73;;;19.02;;
43184;SDS011;28803;52.308;19.096;2022-10-31T12:06:34;30.45;;;18.58;;
43184;SDS011;28803;52.308;19.096;2022-10-31T12:20:02;30.95;;;19.42;;
43184;SDS011;28803;52.308;19.096;2022-10-31T12:28:06;33.92;;;18.63;;
43184;SDS011;28803;52.308;19.096;2022-10-31T12:31:03;34.85;;;19.42;;
43184;SDS011;28803;52.308;19.096;2022-10-31T12:33:55;33.85;;;19.15;;
43184;SDS011;28803;52.308;19.096;2022-10-31T12:36:32;31.38;;;18.88;;
43184;SDS011;28803;52.308;19.096;2022-10-31T12:41:52;34.85;;;20.08;;
43184;SDS011;28803;52.308;19.096;2022-10-31T12:44:38;37.92;;;21.10;;
43184;SDS011;28803;52.308;19.096;2022-10-31T12:50:12;41.20;;;21.73;;
43184;SDS011;28803;52.308;19.096;2022-10-31T12:52:58;35.72;;;19.38;;
43184;SDS011;28803;52.308;19.096;2022-10-31T12:58:36;32.65;;;19.92;;
43184;SDS011;28803;52.308;19.096;2022-10-31T13:01:08;36.05;;;21.35;;
43184;SDS011;28803;52.308;19.096;2022-10-31T13:06:31;37.05;;;21.35;;
43184;SDS011;28803;52.308;19.096;2022-10-31T13:09:10;38.15;;;22.10;;
43184;SDS011;28803;52.308;19.096;2022-10-31T13:11:43;37.70;;;19.05;;
43184;SDS011;28803;52.308;19.096;2022-10-31T13:14:23;37.10;;;20.03;;
43184;SDS011;28803;52.308;19.096;2022-10-31T13:16:55;41.42;;;21.80;;
43184;SDS011;28803;52.308;19.096;2022-10-31T13:24:39;39.40;;;21.58;;
43184;SDS011;28803;52.308;19.096;2022-10-31T13:27:22;39.88;;;23.88;;
43184;SDS011;28803;52.308;19.096;2022-10-31T13:29:57;40.67;;;22.63;;
43184;SDS011;28803;52.308;19.096;2022-10-31T13:32:35;45.58;;;22.15;;
43184;SDS011;28803;52.308;19.096;2022-10-31T13:35:10;44.22;;;23.85;;
43184;SDS011;28803;52.308;19.096;2022-10-31T13:38:08;45.28;;;23.90;;
43184;SDS011;28803;52.308;19.096;2022-10-31T13:40:53;42.88;;;22.50;;
43184;SDS011;28803;52.308;19.096;2022-10-31T13:46:25;51.25;;;23.88;;
43184;SDS011;28803;52.308;19.096;2022-10-31T13:49:02;56.60;;;25.02;;
43184;SDS011;28803;52.308;19.096;2022-10-31T13:51:31;41.53;;;22.75;;
43184;SDS011;28803;52.308;19.096;2022-10-31T13:54:19;46.33;;;22.38;;
43184;SDS011;28803;52.308;19.096;2022-10-31T13:56:50;49.72;;;23.63;;
43184;SDS011;28803;52.308;19.096;2022-10-31T13:59:19;46.65;;;21.85;;
43184;SDS011;28803;52.308;19.096;2022-10-31T14:01:53;46.58;;;22.48;;
43184;SDS011;28803;52.308;19.096;2022-10-31T14:04:43;43.38;;;23.05;;
43184;SDS011;28803;52.308;19.096;2022-10-31T14:07:16;49.90;;;19.88;;
43184;SDS011;28803;52.308;19.096;2022-10-31T14:12:28;36.00;;;17.73;;
43184;SDS011;28803;52.308;19.096;2022-10-31T14:22:49;50.70;;;20.85;;
43184;SDS011;28803;52.308;19.096;2022-10-31T14:28:05;36.17;;;20.02;;
43184;SDS011;28803;52.308;19.096;2022-10-31T14:31:01;32.58;;;17.38;;
43184;SDS011;28803;52.308;19.096;2022-10-31T14:33:29;32.80;;;17.05;;
43184;SDS011;28803;52.308;19.096;2022-10-31T14:36:17;42.15;;;19.70;;
43184;SDS011;28803;52.308;19.096;2022-10-31T14:39:12;44.53;;;20.05;;
43184;SDS011;28803;52.308;19.096;2022-10-31T14:44:47;42.28;;;20.95;;
43184;SDS011;28803;52.308;19.096;2022-10-31T14:52:27;42.10;;;20.23;;
43184;SDS011;28803;52.308;19.096;2022-10-31T14:54:55;51.55;;;23.50;;
43184;SDS011;28803;52.308;19.096;2022-10-31T14:57:26;41.83;;;20.58;;
43184;SDS011;28803;52.308;19.096;2022-10-31T15:00:00;51.25;;;21.85;;
43184;SDS011;28803;52.308;19.096;2022-10-31T15:02:33;56.92;;;22.65;;
43184;SDS011;28803;52.308;19.096;2022-10-31T15:05:13;56.83;;;22.42;;
43184;SDS011;28803;52.308;19.096;2022-10-31T15:07:56;45.70;;;20.35;;
43184;SDS011;28803;52.308;19.096;2022-10-31T15:10:25;55.72;;;19.92;;
43184;SDS011;28803;52.308;19.096;2022-10-31T15:12:56;45.53;;;22.45;;
43184;SDS011;28803;52.308;19.096;2022-10-31T15:15:34;50.17;;;20.13;;
43184;SDS011;28803;52.308;19.096;2022-10-31T15:18:03;40.78;;;20.45;;
43184;SDS011;28803;52.308;19.096;2022-10-31T15:20:33;38.33;;;20.45;;
43184;SDS011;28803;52.308;19.096;2022-10-31T15:23:08;43.25;;;19.83;;
43184;SDS011;28803;52.308;19.096;2022-10-31T15:25:40;39.45;;;18.85;;
43184;SDS011;28803;52.308;19.096;2022-10-31T15:28:14;41.28;;;20.48;;
43184;SDS011;28803;52.308;19.096;2022-10-31T15:30:54;43.80;;;20.10;;
43184;SDS011;28803;52.308;19.096;2022-10-31T15:33:39;42.80;;;20.80;;
43184;SDS011;28803;52.308;19.096;2022-10-31T15:36:20;36.90;;;19.10;;
43184;SDS011;28803;52.308;19.096;2022-10-31T15:38:55;45.40;;;21.20;;
43184;SDS011;28803;52.308;19.096;2022-10-31T15:44:26;34.00;;;17.02;;
43184;SDS011;28803;52.308;19.096;2022-10-31T15:47:03;33.88;;;16.50;;
43184;SDS011;28803;52.308;19.096;2022-10-31T15:49:52;35.30;;;16.15;;
43184;SDS011;28803;52.308;19.096;2022-10-31T15:57:39;30.67;;;14.30;;
43184;SDS011;28803;52.308;19.096;2022-10-31T16:00:22;31.20;;;16.63;;
43184;SDS011;28803;52.308;19.096;2022-10-31T16:05:46;35.33;;;17.02;;
43184;SDS011;28803;52.308;19.096;2022-10-31T16:08:22;40.17;;;17.55;;
43184;SDS011;28803;52.308;19.096;2022-10-31T16:10:53;42.15;;;17.83;;
43184;SDS011;28803;52.308;19.096;2022-10-31T16:13:38;41.30;;;18.53;;
43184;SDS011;28803;52.308;19.096;2022-10-31T16:16:28;36.83;;;18.30;;
43184;SDS011;28803;52.308;19.096;2022-10-31T16:19:02;30.83;;;15.77;;
43184;SDS011;28803;52.308;19.096;2022-10-31T16:21:33;27.42;;;14.50;;
43184;SDS011;28803;52.308;19.096;2022-10-31T16:24:46;34.05;;;16.10;;
43184;SDS011;28803;52.308;19.096;2022-10-31T16:27:06;36.25;;;18.02;;
43184;SDS011;28803;52.308;19.096;2022-10-31T16:29:52;37.50;;;17.73;;
43184;SDS011;28803;52.308;19.096;2022-10-31T16:37:42;35.28;;;16.63;;
43184;SDS011;28803;52.308;19.096;2022-10-31T16:40:10;43.67;;;16.92;;
43184;SDS011;28803;52.308;19.096;2022-10-31T16:42:43;47.03;;;16.60;;
43184;SDS011;28803;52.308;19.096;2022-10-31T16:47:46;38.65;;;18.52;;
43184;SDS011;28803;52.308;19.096;2022-10-31T16:50:19;37.92;;;16.42;;
43184;SDS011;28803;52.308;19.096;2022-10-31T16:52:51;31.27;;;15.38;;
43184;SDS011;28803;52.308;19.096;2022-10-31T16:55:46;40.72;;;16.00;;
43184;SDS011;28803;52.308;19.096;2022-10-31T16:58:21;33.92;;;16.02;;
43184;SDS011;28803;52.308;19.096;2022-10-31T17:00:51;40.05;;;17.88;;
43184;SDS011;28803;52.308;19.096;2022-10-31T17:03:19;173.00;;;93.78;;
43184;SDS011;28803;52.308;19.096;2022-10-31T17:05:46;88.93;;;47.25;;
43184;SDS011;28803;52.308;19.096;2022-10-31T17:08:13;50.70;;;26.50;;